createdAt,value
2022-09-10T00:01:59.529Z,3.00
2022-09-10T00:04:27.912Z,2.83
2022-09-10T00:06:55.542Z,2.95
2022-09-10T00:09:22.882Z,2.90
2022-09-10T00:11:49.708Z,2.85
2022-09-10T00:14:22.797Z,3.03
2022-09-10T00:16:50.357Z,2.80
2022-09-10T00:19:18.147Z,2.92
2022-09-10T00:21:45.132Z,2.42
2022-09-10T00:24:11.990Z,2.83
2022-09-10T00:26:40.315Z,2.88
2022-09-10T00:29:10.608Z,2.75
2022-09-10T00:31:37.823Z,2.90
2022-09-10T00:34:05.860Z,3.67
2022-09-10T00:36:37.036Z,3.10
2022-09-10T00:39:07.208Z,3.17
2022-09-10T00:41:35.189Z,3.25
2022-09-10T00:44:05.094Z,3.20
2022-09-10T00:46:41.676Z,3.45
2022-09-10T00:49:22.592Z,2.75
2022-09-10T00:51:52.525Z,3.05
2022-09-10T00:54:23.446Z,2.95
2022-09-10T00:56:53.892Z,3.05
2022-09-10T00:59:22.567Z,2.88
2022-09-10T01:01:49.710Z,2.88
2022-09-10T01:04:16.675Z,3.00
2022-09-10T01:06:46.194Z,2.72
2022-09-10T01:09:14.187Z,3.00
2022-09-10T01:11:59.624Z,2.80
2022-09-10T01:14:56.717Z,3.10
2022-09-10T01:17:33.953Z,3.28
2022-09-10T01:20:16.912Z,3.50
2022-09-10T01:22:58.143Z,3.10
2022-09-10T01:25:43.002Z,3.47
2022-09-10T01:28:17.752Z,3.30
2022-09-10T01:30:50.432Z,3.38
2022-09-10T01:33:34.285Z,3.58
2022-09-10T01:36:09.564Z,3.58
2022-09-10T01:38:38.982Z,3.17
2022-09-10T01:41:06.965Z,3.30
2022-09-10T01:43:34.214Z,3.10
2022-09-10T01:46:19.191Z,3.55
2022-09-10T01:49:01.710Z,3.47
2022-09-10T01:51:50.214Z,3.00
2022-09-10T01:54:26.412Z,3.15
2022-09-10T01:57:15.027Z,3.80
2022-09-10T02:00:09.725Z,3.40
2022-09-10T02:02:47.215Z,3.25
2022-09-10T02:05:17.416Z,2.95
2022-09-10T02:07:46.793Z,3.08
2022-09-10T02:10:13.957Z,3.40
2022-09-10T02:12:41.128Z,3.30
2022-09-10T02:15:08.816Z,3.30
2022-09-10T02:17:40.216Z,3.35
2022-09-10T02:20:10.884Z,3.70
2022-09-10T02:22:40.588Z,3.45
2022-09-10T02:25:09.886Z,3.42
2022-09-10T02:27:37.944Z,3.63
2022-09-10T02:30:06.912Z,3.72
2022-09-10T02:32:33.634Z,3.85
2022-09-10T02:35:00.403Z,3.60
2022-09-10T02:37:27.078Z,3.80
2022-09-10T02:39:54.241Z,3.53
2022-09-10T02:42:22.256Z,4.28
2022-09-10T02:44:49.759Z,4.28
2022-09-10T02:47:16.487Z,3.88
2022-09-10T02:49:43.216Z,4.18
2022-09-10T02:52:10.038Z,4.38
2022-09-10T02:54:36.751Z,4.18
2022-09-10T02:57:03.676Z,4.25
2022-09-10T02:59:32.667Z,4.50
2022-09-10T03:01:59.744Z,4.18
2022-09-10T03:04:26.476Z,4.82
2022-09-10T03:06:54.906Z,4.43
2022-09-10T03:09:22.612Z,4.30
2022-09-10T03:11:50.545Z,4.47
2022-09-10T03:14:20.424Z,4.18
2022-09-10T03:16:47.821Z,5.15
2022-09-10T03:19:15.486Z,4.65
2022-09-10T03:21:42.793Z,5.75
2022-09-10T03:24:10.362Z,5.97
2022-09-10T03:26:37.119Z,6.10
2022-09-10T03:29:03.895Z,5.95
2022-09-10T03:31:31.204Z,6.70
2022-09-10T03:33:59.700Z,7.32
2022-09-10T03:36:28.290Z,7.10
2022-09-10T03:38:55.133Z,7.57
2022-09-10T03:41:21.874Z,7.80
2022-09-10T03:43:49.530Z,7.68
2022-09-10T03:46:16.339Z,7.43
2022-09-10T03:48:45.763Z,7.88
2022-09-10T03:51:12.993Z,8.43
2022-09-10T03:53:40.801Z,7.65
2022-09-10T03:56:08.676Z,7.88
2022-09-10T03:58:35.879Z,8.63
2022-09-10T04:01:02.935Z,8.82
2022-09-10T04:03:29.800Z,9.98
2022-09-10T04:05:56.871Z,7.72
2022-09-10T04:08:23.568Z,8.43
2022-09-10T04:10:50.298Z,7.70
2022-09-10T04:13:16.987Z,8.57
2022-09-10T04:15:47.219Z,8.55
2022-09-10T04:18:14.620Z,9.23
2022-09-10T04:20:42.222Z,8.48
2022-09-10T04:23:08.984Z,8.98
2022-09-10T04:25:35.701Z,9.27
2022-09-10T04:28:02.851Z,8.77
2022-09-10T04:30:29.870Z,8.63
2022-09-10T04:32:56.551Z,9.13
2022-09-10T04:35:23.484Z,9.60
2022-09-10T04:37:50.172Z,9.40
2022-09-10T04:40:17.010Z,9.02
2022-09-10T04:42:43.749Z,9.18
2022-09-10T04:45:10.754Z,10.00
2022-09-10T04:47:37.996Z,10.48
2022-09-10T04:50:06.469Z,9.90
2022-09-10T04:52:33.300Z,9.73
2022-09-10T04:54:59.991Z,10.05
2022-09-10T04:57:26.732Z,10.55
2022-09-10T04:59:54.095Z,10.43
2022-09-10T05:02:20.856Z,10.30
2022-09-10T05:04:47.623Z,10.25
2022-09-10T05:07:14.303Z,11.23
2022-09-10T05:09:41.016Z,10.90
2022-09-10T05:12:07.861Z,11.13
2022-09-10T05:14:34.606Z,11.45
2022-09-10T05:17:01.514Z,12.23
2022-09-10T05:19:29.040Z,12.50
2022-09-10T05:21:55.842Z,12.98
2022-09-10T05:24:22.729Z,12.98
2022-09-10T05:26:49.428Z,14.23
2022-09-10T05:29:16.583Z,13.98
2022-09-10T05:31:44.355Z,14.82
2022-09-10T05:34:11.241Z,14.98
2022-09-10T05:36:38.011Z,15.05
2022-09-10T05:39:04.932Z,15.40
2022-09-10T05:41:32.536Z,14.52
2022-09-10T05:44:00.124Z,14.27
2022-09-10T05:46:28.882Z,14.77
2022-09-10T05:48:55.684Z,14.95
2022-09-10T05:51:22.571Z,15.52
2022-09-10T05:53:49.957Z,14.85
2022-09-10T05:56:16.783Z,14.98
2022-09-10T05:58:45.236Z,15.23
2022-09-10T06:01:11.981Z,16.52
2022-09-10T06:03:40.245Z,16.42
2022-09-10T06:06:07.346Z,15.35
2022-09-10T06:08:35.593Z,16.55
2022-09-10T06:11:05.806Z,15.77
2022-09-10T06:13:34.012Z,16.60
2022-09-10T06:16:01.228Z,15.75
2022-09-10T06:18:28.283Z,16.00
2022-09-10T06:21:13.112Z,16.05
2022-09-10T06:23:40.278Z,16.45
2022-09-10T06:26:11.487Z,16.35
2022-09-10T06:28:38.461Z,15.65
2022-09-10T06:31:05.679Z,17.13
2022-09-10T06:33:33.513Z,16.67
2022-09-10T06:36:01.745Z,14.88
2022-09-10T06:38:31.166Z,15.77
2022-09-10T06:41:01.569Z,15.32
2022-09-10T06:43:32.995Z,15.93
2022-09-10T06:45:59.901Z,15.32
2022-09-10T06:48:49.664Z,15.48
2022-09-10T06:51:16.786Z,14.75
2022-09-10T06:53:46.439Z,14.82
2022-09-10T06:56:15.195Z,14.45
2022-09-10T06:58:42.112Z,13.93
2022-09-10T07:01:12.986Z,14.70
2022-09-10T07:03:39.706Z,13.70
2022-09-10T07:06:11.165Z,13.75
2022-09-10T07:08:39.675Z,13.35
2022-09-10T07:11:11.280Z,13.82
2022-09-10T07:13:38.551Z,13.43
2022-09-10T07:16:06.657Z,13.93
2022-09-10T07:18:34.016Z,12.90
2022-09-10T07:21:11.958Z,12.43
2022-09-10T07:23:39.413Z,12.75
2022-09-10T07:26:12.437Z,14.23
2022-09-10T07:28:40.529Z,13.27
2022-09-10T07:31:19.818Z,14.07
2022-09-10T07:33:47.354Z,13.27
2022-09-10T07:36:14.902Z,14.75
2022-09-10T07:38:42.944Z,14.93
2022-09-10T07:41:12.211Z,14.07
2022-09-10T07:43:40.073Z,14.02
2022-09-10T07:46:07.538Z,14.57
2022-09-10T07:48:34.597Z,14.18
2022-09-10T07:51:03.478Z,13.55
2022-09-10T07:53:30.452Z,14.68
2022-09-10T07:56:03.184Z,14.20
2022-09-10T07:58:31.757Z,13.70
2022-09-10T08:00:59.902Z,12.82
2022-09-10T08:03:27.410Z,12.27
2022-09-10T08:05:54.866Z,12.88
2022-09-10T08:08:22.554Z,13.43
2022-09-10T08:10:49.705Z,12.68
2022-09-10T08:13:16.537Z,12.60
2022-09-10T08:15:46.283Z,12.85
2022-09-10T08:18:13.736Z,12.02
2022-09-10T08:20:40.914Z,11.95
2022-09-10T08:23:08.230Z,13.10
2022-09-10T08:25:35.684Z,12.00
2022-09-10T08:28:02.607Z,11.18
2022-09-10T08:30:31.189Z,10.98
2022-09-10T08:32:57.952Z,11.45
2022-09-10T08:35:24.698Z,10.70
2022-09-10T08:37:51.424Z,9.95
2022-09-10T08:40:18.560Z,10.18
2022-09-10T08:42:50.958Z,10.13
2022-09-10T08:45:29.914Z,10.38
2022-09-10T08:48:08.482Z,10.25
2022-09-10T08:50:55.536Z,11.13
2022-09-10T08:53:32.807Z,10.88
2022-09-10T08:56:05.249Z,12.52
2022-09-10T08:58:46.997Z,11.75
2022-09-10T09:01:34.636Z,12.23
2022-09-10T09:04:06.365Z,10.98
2022-09-10T09:06:51.382Z,11.60
2022-09-10T09:09:18.337Z,10.57
2022-09-10T09:12:01.969Z,11.45
2022-09-10T09:14:45.336Z,10.77
2022-09-10T09:17:36.147Z,10.73
2022-09-10T09:20:18.352Z,10.23
2022-09-10T09:22:52.955Z,10.45
2022-09-10T09:25:29.154Z,10.38
2022-09-10T09:27:57.482Z,9.80
2022-09-10T09:30:49.492Z,8.63
2022-09-10T09:33:21.425Z,8.35
2022-09-10T09:35:57.779Z,8.93
2022-09-10T09:38:41.340Z,9.00
2022-09-10T09:41:15.827Z,8.75
2022-09-10T09:43:49.742Z,8.50
2022-09-10T09:46:20.152Z,8.02
2022-09-10T09:48:47.752Z,8.27
2022-09-10T09:51:21.152Z,7.82
2022-09-10T09:54:18.473Z,8.10
2022-09-10T09:56:46.521Z,7.65
2022-09-10T09:59:36.831Z,8.07
2022-09-10T10:02:23.950Z,7.18
2022-09-10T10:05:07.087Z,7.35
2022-09-10T10:07:36.379Z,6.38
2022-09-10T10:10:07.399Z,7.68
2022-09-10T10:12:37.182Z,7.15
2022-09-10T10:15:04.083Z,7.63
2022-09-10T10:17:35.726Z,7.00
2022-09-10T10:20:07.954Z,6.68
2022-09-10T10:22:36.583Z,7.10
2022-09-10T10:25:06.420Z,6.07
2022-09-10T10:27:36.851Z,5.60
2022-09-10T10:30:18.917Z,5.50
2022-09-10T10:32:53.985Z,6.05
2022-09-10T10:35:29.470Z,5.45
2022-09-10T10:38:17.944Z,5.20
2022-09-10T10:41:08.178Z,4.97
2022-09-10T10:43:55.977Z,5.65
2022-09-10T10:46:46.641Z,5.00
2022-09-10T10:49:35.421Z,4.10
2022-09-10T10:52:15.233Z,4.50
2022-09-10T10:54:47.796Z,4.40
2022-09-10T10:57:30.814Z,4.28
2022-09-10T11:00:13.723Z,3.90
2022-09-10T11:03:00.438Z,4.45
2022-09-10T11:05:48.148Z,3.78
2022-09-10T11:08:27.294Z,3.42
2022-09-10T11:14:56.856Z,4.03
2022-09-10T11:17:45.393Z,3.70
2022-09-10T11:20:32.970Z,4.47
2022-09-10T11:23:29.582Z,4.57
2022-09-10T11:26:18.784Z,3.75
2022-09-10T11:28:59.499Z,3.88
2022-09-10T11:31:47.669Z,3.42
2022-09-10T11:34:40.428Z,3.78
2022-09-10T11:37:20.045Z,3.70
2022-09-10T11:39:52.455Z,3.90
2022-09-10T11:42:36.211Z,3.95
2022-09-10T11:45:07.594Z,3.80
2022-09-10T11:47:38.041Z,4.18
2022-09-10T11:50:32.359Z,4.05
2022-09-10T11:53:01.504Z,4.65
2022-09-10T11:55:45.639Z,4.57
2022-09-10T11:58:19.753Z,4.30
2022-09-10T12:01:19.207Z,4.28
2022-09-10T12:04:10.944Z,4.93
2022-09-10T12:06:48.847Z,5.38
2022-09-10T12:09:30.126Z,5.25
2022-09-10T12:12:13.971Z,4.55
2022-09-10T12:14:41.407Z,4.63
2022-09-10T12:17:32.918Z,3.83
2022-09-10T12:20:01.700Z,3.60
2022-09-10T12:22:38.022Z,3.40
2022-09-10T12:25:24.012Z,4.20
2022-09-10T12:27:57.648Z,4.57
2022-09-10T12:30:27.704Z,4.63
2022-09-10T12:33:00.565Z,4.63
2022-09-10T12:35:30.537Z,4.63
2022-09-10T12:38:34.755Z,4.70
2022-09-10T12:41:05.314Z,5.10
2022-09-10T12:43:41.232Z,5.18
2022-09-10T12:46:12.581Z,5.50
2022-09-10T12:48:48.867Z,5.75
2022-09-10T12:51:18.543Z,5.70
2022-09-10T12:53:47.972Z,5.97
2022-09-10T12:56:30.724Z,6.32
2022-09-10T12:59:39.230Z,6.57
2022-09-10T13:02:33.984Z,7.05
2022-09-10T13:05:18.266Z,6.78
2022-09-10T13:07:46.438Z,6.90
2022-09-10T13:10:25.913Z,7.30
2022-09-10T13:12:59.369Z,6.75
2022-09-10T13:15:29.938Z,6.32
2022-09-10T13:17:56.774Z,6.85
2022-09-10T13:20:26.198Z,6.80
2022-09-10T13:23:01.662Z,6.55
2022-09-10T13:25:34.928Z,6.63
2022-09-10T13:28:02.717Z,6.38
2022-09-10T13:30:31.451Z,6.47
2022-09-10T13:33:05.362Z,6.40
2022-09-10T13:35:49.302Z,6.10
2022-09-10T13:38:37.822Z,5.65
2022-09-10T13:41:31.978Z,5.15
2022-09-10T13:44:34.350Z,4.75
2022-09-10T13:47:09.486Z,5.03
2022-09-10T13:50:11.737Z,5.20
2022-09-10T13:52:39.504Z,4.53
2022-09-10T13:55:10.007Z,4.38
2022-09-10T13:57:43.654Z,4.85
2022-09-10T14:00:23.451Z,3.88
2022-09-10T14:02:56.377Z,5.22
2022-09-10T14:05:26.595Z,4.38
2022-09-10T14:07:59.456Z,4.28
2022-09-10T14:10:26.302Z,4.43
2022-09-10T14:12:54.040Z,4.30
2022-09-10T14:15:24.787Z,4.68
2022-09-10T14:17:57.350Z,4.50
2022-09-10T14:20:33.942Z,4.68
2022-09-10T14:23:29.571Z,4.88
2022-09-10T14:26:14.434Z,4.57
2022-09-10T14:29:22.599Z,4.82
2022-09-10T14:31:49.422Z,4.65
2022-09-10T14:34:36.119Z,4.65
2022-09-10T14:37:25.790Z,5.03
2022-09-10T14:39:52.586Z,4.50
2022-09-10T14:42:34.228Z,4.68
2022-09-10T14:45:01.785Z,4.25
2022-09-10T14:47:35.097Z,4.30
2022-09-10T14:50:27.756Z,3.83
2022-09-10T14:52:55.721Z,4.20
2022-09-10T14:55:25.260Z,3.47
2022-09-10T14:57:55.883Z,3.30
2022-09-10T15:00:23.902Z,2.95
2022-09-10T15:02:53.289Z,2.97
2022-09-10T15:05:20.305Z,3.30
2022-09-10T15:07:47.462Z,3.30
2022-09-10T15:10:14.448Z,3.50
2022-09-10T15:12:45.038Z,2.90
2022-09-10T15:15:17.594Z,3.03
2022-09-10T15:17:45.233Z,3.20
2022-09-10T15:20:17.070Z,3.28
2022-09-10T15:22:44.176Z,2.90
2022-09-10T15:25:38.356Z,3.30
2022-09-10T15:28:07.439Z,2.90
2022-09-10T15:30:36.016Z,2.85
2022-09-10T15:33:06.748Z,2.97
2022-09-10T15:35:33.645Z,2.97
2022-09-10T15:38:03.117Z,3.03
2022-09-10T15:40:29.844Z,3.00
2022-09-10T15:42:57.753Z,3.15
2022-09-10T15:45:24.788Z,2.75
2022-09-10T15:47:51.812Z,2.88
2022-09-10T15:50:18.528Z,3.10
2022-09-10T15:52:45.244Z,3.00
2022-09-10T15:55:12.427Z,3.20
2022-09-10T15:57:40.457Z,2.78
2022-09-10T16:00:07.988Z,3.05
2022-09-10T16:02:34.776Z,2.90
2022-09-10T16:05:01.532Z,2.95
2022-09-10T16:07:31.430Z,2.40
2022-09-10T16:09:58.809Z,3.15
2022-09-10T16:12:27.448Z,2.95
2022-09-10T16:14:55.416Z,2.88
2022-09-10T16:17:22.154Z,2.95
2022-09-10T16:19:49.788Z,3.15
2022-09-10T16:22:20.034Z,3.10
2022-09-10T16:24:47.666Z,3.17
2022-09-10T16:27:16.242Z,3.55
2022-09-10T16:29:43.645Z,3.70
2022-09-10T16:32:10.896Z,3.58
2022-09-10T16:34:38.566Z,3.20
2022-09-10T16:37:05.640Z,3.30
2022-09-10T16:39:32.653Z,2.92
2022-09-10T16:41:59.401Z,2.85
2022-09-10T16:44:26.173Z,2.58
2022-09-10T16:46:52.872Z,2.67
2022-09-10T16:49:19.716Z,2.75
2022-09-10T16:51:47.726Z,2.65
2022-09-10T16:54:16.024Z,2.70
2022-09-10T16:56:47.638Z,2.38
2022-09-10T16:59:17.835Z,2.60
2022-09-10T17:01:48.890Z,2.88
2022-09-10T17:04:24.660Z,2.95
2022-09-10T17:06:53.047Z,3.10
2022-09-10T17:09:19.890Z,3.60
2022-09-10T17:11:46.603Z,3.10
2022-09-10T17:14:13.318Z,3.15
2022-09-10T17:16:42.163Z,3.53
2022-09-10T17:19:15.895Z,3.33
2022-09-10T17:21:48.766Z,3.40
2022-09-10T17:24:15.486Z,3.05
2022-09-10T17:26:42.551Z,3.60
2022-09-10T17:29:12.779Z,3.63
2022-09-10T17:31:39.889Z,3.67
2022-09-10T17:34:07.027Z,3.53
2022-09-10T17:36:34.872Z,4.00
2022-09-10T17:39:01.589Z,3.83
2022-09-10T17:41:29.467Z,4.00
2022-09-10T17:43:59.358Z,3.47
2022-09-10T17:46:27.566Z,3.92
2022-09-10T17:48:54.614Z,3.30
2022-09-10T17:51:26.808Z,3.97
2022-09-10T17:53:57.758Z,3.65
2022-09-10T17:56:26.537Z,3.55
2022-09-10T17:59:01.916Z,3.53
2022-09-10T18:01:33.827Z,3.20
2022-09-10T18:04:00.651Z,3.70
2022-09-10T18:06:29.229Z,3.40
2022-09-10T18:09:00.619Z,3.40
2022-09-10T18:11:30.901Z,3.38
2022-09-10T18:13:58.539Z,3.80
2022-09-10T18:16:27.942Z,3.22
2022-09-10T18:18:58.328Z,3.15
2022-09-10T18:21:31.265Z,3.50
2022-09-10T18:24:14.591Z,3.80
2022-09-10T18:26:44.143Z,3.60
2022-09-10T18:29:13.641Z,3.58
2022-09-10T18:31:43.526Z,3.63
2022-09-10T18:34:13.973Z,3.58
2022-09-10T18:36:40.757Z,3.65
2022-09-10T18:39:13.399Z,3.35
2022-09-10T18:41:42.518Z,3.95
2022-09-10T18:44:23.751Z,3.70
2022-09-10T18:46:52.729Z,4.10
2022-09-10T18:49:21.683Z,4.18
2022-09-10T18:51:49.329Z,3.70
2022-09-10T18:54:17.254Z,4.30
2022-09-10T18:56:45.332Z,4.57
2022-09-10T18:59:15.055Z,4.82
2022-09-10T19:01:43.676Z,4.80
2022-09-10T19:04:13.598Z,4.85
2022-09-10T19:06:43.348Z,5.05
2022-09-10T19:09:12.851Z,4.72
2022-09-10T19:11:44.982Z,4.70
2022-09-10T19:14:26.671Z,4.88
2022-09-10T19:16:56.218Z,4.60
2022-09-10T19:19:25.981Z,4.50
2022-09-10T19:21:59.558Z,5.00
2022-09-10T19:24:43.944Z,4.93
2022-09-10T19:27:14.065Z,4.63
2022-09-10T19:29:42.323Z,4.57
2022-09-10T19:32:11.167Z,4.68
2022-09-10T19:34:38.005Z,5.68
2022-09-10T19:37:04.759Z,5.10
2022-09-10T19:39:31.486Z,4.97
2022-09-10T19:41:58.184Z,5.38
2022-09-10T19:44:25.014Z,5.32
2022-09-10T19:46:51.711Z,5.07
2022-09-10T19:49:18.502Z,4.63
2022-09-10T19:51:45.336Z,4.90
2022-09-10T19:54:12.101Z,6.22
2022-09-10T19:56:42.239Z,5.13
2022-09-10T19:59:09.836Z,5.38
2022-09-10T20:01:41.929Z,5.28
2022-09-10T20:04:11.403Z,5.13
2022-09-10T20:06:39.049Z,5.15
2022-09-10T20:09:08.082Z,5.15
2022-09-10T20:11:35.583Z,5.15
2022-09-10T20:14:08.245Z,5.32
2022-09-10T20:16:39.771Z,5.07
2022-09-10T20:19:07.471Z,5.00
2022-09-10T20:21:35.595Z,5.00
2022-09-10T20:24:02.805Z,5.78
2022-09-10T20:26:34.440Z,5.10
2022-09-10T20:29:04.301Z,5.60
2022-09-10T20:31:33.268Z,5.53
2022-09-10T20:34:03.545Z,5.22
2022-09-10T20:36:31.525Z,5.40
2022-09-10T20:38:58.512Z,5.20
2022-09-10T20:41:30.204Z,5.90
2022-09-10T20:43:59.254Z,6.03
2022-09-10T20:46:27.698Z,5.75
2022-09-10T20:48:56.782Z,5.45
2022-09-10T20:51:23.709Z,6.30
2022-09-10T20:53:50.632Z,5.32
2022-09-10T20:56:19.155Z,5.30
2022-09-10T20:58:47.366Z,5.60
2022-09-10T21:01:23.670Z,5.68
2022-09-10T21:03:53.540Z,5.63
2022-09-10T21:06:24.271Z,5.30
2022-09-10T21:08:51.304Z,5.75
2022-09-10T21:11:20.359Z,5.95
2022-09-10T21:13:55.901Z,5.45
2022-09-10T21:16:34.097Z,5.88
2022-09-10T21:19:09.902Z,6.18
2022-09-10T21:21:39.319Z,6.07
2022-09-10T21:24:12.495Z,6.72
2022-09-10T21:26:40.718Z,6.18
2022-09-10T21:29:11.316Z,6.13
2022-09-10T21:31:38.747Z,7.05
2022-09-10T21:34:06.045Z,6.43
2022-09-10T21:36:34.911Z,7.38
2022-09-10T21:39:04.362Z,7.30
2022-09-10T21:41:33.489Z,7.60
2022-09-10T21:44:03.026Z,6.82
2022-09-10T21:46:30.325Z,6.70
2022-09-10T21:48:57.351Z,7.18
2022-09-10T21:51:24.487Z,7.32
2022-09-10T21:53:55.751Z,7.13
2022-09-10T21:56:23.979Z,7.53
2022-09-10T21:58:50.975Z,6.85
2022-09-10T22:01:20.981Z,6.95
2022-09-10T22:03:49.200Z,7.50
2022-09-10T22:06:18.780Z,6.97
2022-09-10T22:08:49.869Z,6.90
2022-09-10T22:11:30.278Z,7.47
2022-09-10T22:14:03.602Z,7.13
2022-09-10T22:16:32.815Z,6.90
2022-09-10T22:19:02.442Z,6.82
2022-09-10T22:21:30.080Z,8.38
2022-09-10T22:23:57.066Z,8.23
2022-09-10T22:26:28.282Z,8.40
2022-09-10T22:28:58.141Z,7.80
2022-09-10T22:31:27.823Z,7.75
2022-09-10T22:34:00.460Z,7.97
2022-09-10T22:36:31.462Z,7.97
2022-09-10T22:39:01.544Z,9.50
2022-09-10T22:41:30.107Z,8.43
2022-09-10T22:43:57.076Z,8.25
2022-09-10T22:46:24.349Z,8.75
2022-09-10T22:48:51.206Z,8.88
2022-09-10T22:51:20.264Z,9.13
2022-09-10T22:53:47.216Z,9.23
2022-09-10T22:56:17.052Z,8.85
2022-09-10T22:58:44.906Z,9.10
2022-09-10T23:01:14.574Z,8.75
2022-09-10T23:03:42.813Z,8.80
2022-09-10T23:06:12.105Z,8.95
2022-09-10T23:08:40.161Z,9.20
2022-09-10T23:11:16.433Z,9.60
2022-09-10T23:13:45.128Z,9.23
2022-09-10T23:16:18.145Z,9.40
2022-09-10T23:18:55.327Z,9.93
2022-09-10T23:21:23.940Z,10.20
2022-09-10T23:23:53.069Z,9.40
2022-09-10T23:26:20.740Z,10.18
2022-09-10T23:28:47.991Z,10.52
2022-09-10T23:31:16.149Z,10.10
2022-09-10T23:34:03.872Z,9.15
2022-09-10T23:36:33.691Z,9.68
2022-09-10T23:39:02.038Z,10.32
2022-09-10T23:41:30.016Z,10.07
2022-09-10T23:43:57.263Z,10.73
2022-09-10T23:46:24.846Z,11.70
2022-09-10T23:48:51.934Z,11.73
2022-09-10T23:51:20.771Z,10.65
2022-09-10T23:53:48.055Z,10.50
2022-09-10T23:56:17.505Z,11.85
2022-09-10T23:58:44.404Z,12.13
